createdAt,value
2022-10-24T00:01:46.626Z,90.50
2022-10-24T00:04:14.913Z,90.46
2022-10-24T00:06:43.382Z,90.36
2022-10-24T00:09:11.946Z,89.52
2022-10-24T00:11:43.399Z,91.04
2022-10-24T00:14:11.566Z,91.32
2022-10-24T00:16:39.560Z,91.62
2022-10-24T00:19:09.030Z,92.43
2022-10-24T00:21:37.138Z,92.63
2022-10-24T00:24:05.686Z,92.95
2022-10-24T00:26:34.067Z,92.97
2022-10-24T00:29:02.289Z,92.56
2022-10-24T00:31:30.413Z,91.71
2022-10-24T00:33:59.924Z,92.67
2022-10-24T00:36:29.937Z,92.81
2022-10-24T00:38:58.036Z,90.20
2022-10-24T00:41:28.076Z,89.91
2022-10-24T00:44:14.733Z,90.73
2022-10-24T00:46:45.643Z,92.96
2022-10-24T00:49:17.745Z,93.44
2022-10-24T00:51:49.832Z,92.39
2022-10-24T00:54:18.839Z,90.96
2022-10-24T00:56:55.371Z,88.19
2022-10-24T00:59:25.036Z,88.00
2022-10-24T01:01:53.676Z,89.00
2022-10-24T01:04:21.893Z,89.72
2022-10-24T01:07:02.972Z,91.75
2022-10-24T01:09:50.917Z,92.14
2022-10-24T01:12:32.033Z,93.34
2022-10-24T01:15:08.647Z,93.87
2022-10-24T01:17:43.655Z,92.49
2022-10-24T01:20:35.565Z,92.70
2022-10-24T01:23:31.406Z,91.99
2022-10-24T01:26:12.414Z,91.99
2022-10-24T01:28:50.858Z,90.41
2022-10-24T01:31:28.070Z,88.86
2022-10-24T01:34:03.559Z,89.04
2022-10-24T01:36:39.783Z,88.27
2022-10-24T01:39:14.234Z,88.24
2022-10-24T01:41:45.018Z,87.80
2022-10-24T01:44:19.060Z,87.26
2022-10-24T01:46:53.505Z,87.25
2022-10-24T01:49:24.494Z,86.92
2022-10-24T01:51:57.650Z,86.64
2022-10-24T01:54:26.037Z,86.99
2022-10-24T01:56:54.101Z,87.45
2022-10-24T01:59:46.988Z,87.78
2022-10-24T02:02:21.075Z,89.15
2022-10-24T02:04:56.066Z,88.37
2022-10-24T02:07:25.577Z,88.50
2022-10-24T02:09:58.810Z,87.98
2022-10-24T02:12:28.576Z,88.29
2022-10-24T02:15:01.163Z,88.38
2022-10-24T02:17:30.944Z,88.99
2022-10-24T02:20:00.559Z,88.29
2022-10-24T02:22:31.969Z,87.69
2022-10-24T02:25:06.299Z,88.22
2022-10-24T02:27:40.100Z,87.45
2022-10-24T02:30:13.539Z,87.00
2022-10-24T02:32:45.441Z,88.09
2022-10-24T02:35:17.381Z,88.48
2022-10-24T02:37:49.183Z,88.14
2022-10-24T02:40:19.987Z,87.41
2022-10-24T02:42:50.181Z,87.74
2022-10-24T02:45:19.551Z,88.53
2022-10-24T02:47:50.056Z,88.39
2022-10-24T02:50:18.659Z,87.55
2022-10-24T02:52:47.933Z,88.45
2022-10-24T02:55:16.242Z,88.70
2022-10-24T02:57:44.611Z,87.88
2022-10-24T03:00:13.953Z,88.06
2022-10-24T03:02:42.121Z,87.58
2022-10-24T03:05:13.026Z,87.83
2022-10-24T03:07:41.102Z,87.55
2022-10-24T03:10:09.819Z,88.19
2022-10-24T03:12:37.981Z,87.49
2022-10-24T03:15:07.446Z,87.48
2022-10-24T03:17:35.619Z,87.84
2022-10-24T03:20:03.638Z,87.37
2022-10-24T03:22:33.289Z,88.83
2022-10-24T03:25:03.936Z,89.14
2022-10-24T03:27:34.165Z,88.32
2022-10-24T03:30:02.461Z,88.34
2022-10-24T03:32:30.655Z,87.94
2022-10-24T03:34:58.638Z,87.46
2022-10-24T03:37:27.196Z,88.04
2022-10-24T03:39:57.185Z,88.60
2022-10-24T03:42:25.227Z,88.87
2022-10-24T03:44:53.294Z,88.72
2022-10-24T03:47:21.313Z,88.36
2022-10-24T03:49:49.391Z,89.50
2022-10-24T03:52:17.630Z,89.05
2022-10-24T03:54:45.948Z,88.99
2022-10-24T03:57:15.728Z,88.97
2022-10-24T03:59:44.157Z,89.21
2022-10-24T04:02:13.551Z,89.45
2022-10-24T04:04:42.257Z,90.44
2022-10-24T04:07:10.374Z,90.32
2022-10-24T04:09:38.589Z,90.39
2022-10-24T04:12:07.204Z,90.65
2022-10-24T04:14:36.714Z,90.50
2022-10-24T04:17:04.841Z,90.12
2022-10-24T04:19:33.186Z,90.29
2022-10-24T04:22:01.491Z,89.62
2022-10-24T04:24:29.731Z,89.92
2022-10-24T04:26:58.413Z,90.52
2022-10-24T04:29:26.631Z,91.45
2022-10-24T04:31:56.299Z,90.18
2022-10-24T04:34:24.443Z,91.30
2022-10-24T04:36:52.570Z,94.89
2022-10-24T04:39:21.294Z,94.95
2022-10-24T04:41:49.396Z,93.84
2022-10-24T04:44:17.375Z,93.04
2022-10-24T04:46:49.259Z,91.99
2022-10-24T04:49:20.856Z,91.70
2022-10-24T04:51:48.944Z,91.79
2022-10-24T04:54:17.194Z,91.76
2022-10-24T04:56:45.243Z,91.56
2022-10-24T04:59:13.469Z,91.44
2022-10-24T05:01:41.894Z,90.66
2022-10-24T05:04:10.065Z,91.91
2022-10-24T05:06:42.713Z,92.29
2022-10-24T05:09:13.047Z,94.70
2022-10-24T05:11:41.155Z,94.27
2022-10-24T05:14:09.345Z,93.62
2022-10-24T05:16:38.266Z,93.74
2022-10-24T05:19:06.383Z,93.67
2022-10-24T05:21:34.657Z,94.17
2022-10-24T05:24:04.196Z,94.87
2022-10-24T05:26:32.387Z,94.30
2022-10-24T05:29:00.502Z,94.88
2022-10-24T05:31:28.758Z,94.67
2022-10-24T05:33:57.198Z,94.89
2022-10-24T05:36:25.257Z,95.35
2022-10-24T05:38:53.382Z,95.11
2022-10-24T05:41:23.078Z,94.63
2022-10-24T05:43:51.419Z,94.75
2022-10-24T05:46:19.860Z,94.58
2022-10-24T05:48:48.408Z,94.35
2022-10-24T05:51:16.507Z,94.80
2022-10-24T05:53:44.579Z,94.55
2022-10-24T05:56:12.782Z,94.28
2022-10-24T05:58:42.696Z,93.96
2022-10-24T06:01:10.877Z,93.60
2022-10-24T06:03:39.733Z,93.78
2022-10-24T06:06:10.894Z,94.08
2022-10-24T06:08:39.817Z,94.16
2022-10-24T06:11:10.787Z,94.47
2022-10-24T06:13:39.722Z,95.28
2022-10-24T06:16:11.730Z,95.19
2022-10-24T06:18:41.349Z,95.15
2022-10-24T06:21:10.870Z,93.74
2022-10-24T06:23:39.087Z,92.05
2022-10-24T06:26:10.218Z,92.08
2022-10-24T06:28:38.821Z,89.96
2022-10-24T06:31:09.054Z,88.60
2022-10-24T06:33:37.169Z,88.88
2022-10-24T06:36:09.538Z,87.87
2022-10-24T06:38:38.267Z,88.13
2022-10-24T06:41:11.245Z,86.64
2022-10-24T06:43:39.904Z,85.51
2022-10-24T06:46:10.577Z,84.63
2022-10-24T06:48:39.310Z,82.96
2022-10-24T06:51:07.985Z,83.35
2022-10-24T06:53:36.260Z,81.16
2022-10-24T06:56:06.776Z,80.91
2022-10-24T06:58:37.331Z,76.50
2022-10-24T07:01:11.451Z,79.86
2022-10-24T07:03:40.363Z,73.49
2022-10-24T07:06:09.458Z,73.87
2022-10-24T07:08:38.046Z,72.97
2022-10-24T07:11:06.557Z,72.54
2022-10-24T07:13:34.754Z,69.01
2022-10-24T07:16:03.292Z,71.05
2022-10-24T07:18:33.592Z,71.68
2022-10-24T07:21:06.472Z,67.99
2022-10-24T07:23:35.688Z,69.11
2022-10-24T07:26:05.096Z,69.76
2022-10-24T07:28:33.692Z,69.53
2022-10-24T07:31:02.869Z,69.93
2022-10-24T07:33:32.994Z,68.67
2022-10-24T07:36:01.595Z,68.33
2022-10-24T07:38:29.642Z,68.71
2022-10-24T07:40:57.848Z,67.08
2022-10-24T07:43:26.145Z,67.25
2022-10-24T07:45:54.312Z,67.13
2022-10-24T07:48:22.699Z,66.49
2022-10-24T07:50:52.270Z,64.33
2022-10-24T07:53:21.042Z,65.49
2022-10-24T07:55:49.210Z,66.66
2022-10-24T07:58:17.604Z,64.55
2022-10-24T08:00:47.420Z,64.84
2022-10-24T08:03:15.855Z,65.67
2022-10-24T08:05:44.902Z,63.72
2022-10-24T08:11:03.160Z,64.68
2022-10-24T08:13:31.298Z,64.53
2022-10-24T08:15:59.598Z,61.50
2022-10-24T08:18:30.274Z,62.41
2022-10-24T08:21:00.034Z,61.21
2022-10-24T08:23:30.012Z,59.86
2022-10-24T08:25:58.262Z,60.16
2022-10-24T08:28:26.691Z,59.92
2022-10-24T08:30:59.237Z,59.37
2022-10-24T08:33:28.372Z,58.28
2022-10-24T08:36:00.910Z,57.00
2022-10-24T08:38:31.297Z,57.95
2022-10-24T08:41:00.044Z,57.21
2022-10-24T08:43:28.551Z,54.93
2022-10-24T08:46:06.792Z,56.17
2022-10-24T08:48:43.810Z,55.04
2022-10-24T08:51:22.899Z,55.14
2022-10-24T08:53:56.552Z,54.54
2022-10-24T08:56:28.970Z,55.52
2022-10-24T08:58:58.693Z,53.68
2022-10-24T09:01:33.589Z,54.76
2022-10-24T09:04:06.086Z,54.50
2022-10-24T09:06:34.218Z,54.43
2022-10-24T09:09:06.425Z,54.72
2022-10-24T09:11:45.402Z,54.29
2022-10-24T09:14:15.243Z,53.23
2022-10-24T09:16:44.786Z,52.15
2022-10-24T09:19:16.469Z,52.04
2022-10-24T09:21:45.885Z,52.39
2022-10-24T09:24:25.257Z,52.01
2022-10-24T09:26:54.402Z,51.93
2022-10-24T09:29:23.169Z,50.75
2022-10-24T09:31:51.342Z,53.98
2022-10-24T09:34:19.538Z,52.01
2022-10-24T09:36:48.304Z,52.04
2022-10-24T09:39:41.729Z,52.34
2022-10-24T09:42:22.130Z,49.81
2022-10-24T09:44:50.230Z,48.80
2022-10-24T09:47:27.873Z,49.86
2022-10-24T09:49:56.773Z,50.93
2022-10-24T09:52:29.344Z,49.13
2022-10-24T09:55:19.691Z,47.69
2022-10-24T09:57:48.868Z,47.74
2022-10-24T10:00:27.135Z,49.04
2022-10-24T10:03:02.274Z,46.55
2022-10-24T10:05:44.635Z,48.13
2022-10-24T10:08:18.612Z,46.48
2022-10-24T10:10:57.951Z,46.66
2022-10-24T10:13:28.286Z,47.43
2022-10-24T10:15:58.135Z,49.62
2022-10-24T10:18:34.179Z,47.85
2022-10-24T10:21:15.081Z,48.36
2022-10-24T10:23:45.889Z,48.18
2022-10-24T10:26:20.162Z,49.18
2022-10-24T10:28:58.073Z,47.84
2022-10-24T10:31:30.079Z,46.92
2022-10-24T10:34:16.080Z,48.42
2022-10-24T10:37:00.428Z,49.25
2022-10-24T10:39:46.842Z,47.74
2022-10-24T10:42:20.634Z,45.94
2022-10-24T10:45:01.143Z,47.72
2022-10-24T10:47:38.230Z,46.29
2022-10-24T10:50:26.508Z,46.02
2022-10-24T10:53:02.022Z,46.54
2022-10-24T10:55:36.631Z,45.95
2022-10-24T10:58:21.957Z,48.29
2022-10-24T11:01:01.883Z,45.45
2022-10-24T11:03:39.058Z,46.00
2022-10-24T11:06:21.127Z,47.03
2022-10-24T11:09:19.132Z,45.30
2022-10-24T11:11:52.678Z,45.47
2022-10-24T11:14:28.047Z,45.44
2022-10-24T11:17:00.268Z,46.11
2022-10-24T11:19:33.789Z,46.14
2022-10-24T11:22:06.577Z,45.13
2022-10-24T11:24:40.546Z,45.76
2022-10-24T11:27:14.886Z,44.73
2022-10-24T11:29:55.339Z,43.86
2022-10-24T11:32:33.700Z,44.89
2022-10-24T11:35:07.509Z,44.74
2022-10-24T11:37:38.474Z,44.45
2022-10-24T11:40:11.926Z,43.78
2022-10-24T11:42:43.623Z,44.42
2022-10-24T11:45:16.620Z,45.49
2022-10-24T11:48:03.672Z,45.15
2022-10-24T11:50:37.838Z,45.58
2022-10-24T11:53:17.871Z,46.42
2022-10-24T11:55:53.743Z,46.01
2022-10-24T11:58:25.154Z,46.56
2022-10-24T12:01:38.775Z,45.23
2022-10-24T12:04:26.268Z,47.72
2022-10-24T12:07:23.046Z,48.45
2022-10-24T12:10:08.363Z,47.27
2022-10-24T12:13:05.474Z,49.27
2022-10-24T12:15:47.199Z,46.15
2022-10-24T12:18:30.323Z,49.00
2022-10-24T12:21:02.832Z,49.27
2022-10-24T12:23:32.090Z,49.80
2022-10-24T12:26:05.776Z,45.88
2022-10-24T12:28:33.950Z,48.11
2022-10-24T12:31:26.150Z,49.20
2022-10-24T12:34:48.841Z,48.30
2022-10-24T12:37:36.008Z,49.46
2022-10-24T12:40:37.438Z,51.10
2022-10-24T12:43:27.785Z,50.57
2022-10-24T12:45:56.270Z,48.45
2022-10-24T12:48:36.490Z,49.65
2022-10-24T12:51:22.373Z,50.11
2022-10-24T12:54:16.072Z,49.36
2022-10-24T12:57:23.183Z,50.78
2022-10-24T12:59:53.022Z,51.11
2022-10-24T13:02:35.279Z,52.59
2022-10-24T13:05:18.486Z,51.88
2022-10-24T13:08:09.686Z,52.34
2022-10-24T13:11:04.549Z,53.31
2022-10-24T13:13:48.958Z,52.74
2022-10-24T13:16:30.365Z,53.31
2022-10-24T13:19:10.648Z,53.91
2022-10-24T13:21:48.511Z,52.43
2022-10-24T13:24:36.761Z,55.07
2022-10-24T13:27:38.148Z,54.54
2022-10-24T13:30:26.426Z,55.14
2022-10-24T13:33:28.249Z,54.84
2022-10-24T13:35:57.990Z,55.73
2022-10-24T13:38:27.501Z,55.98
2022-10-24T13:40:57.171Z,56.30
2022-10-24T13:43:25.342Z,55.93
2022-10-24T13:45:59.233Z,55.27
2022-10-24T13:48:30.384Z,55.80
2022-10-24T13:51:07.148Z,56.43
2022-10-24T13:53:46.348Z,56.86
2022-10-24T13:56:16.570Z,57.58
2022-10-24T13:58:46.467Z,57.15
2022-10-24T14:01:20.313Z,56.89
2022-10-24T14:03:50.705Z,58.21
2022-10-24T14:06:25.946Z,58.80
2022-10-24T14:09:05.815Z,57.61
2022-10-24T14:11:42.059Z,57.85
2022-10-24T14:14:25.759Z,58.21
2022-10-24T14:17:07.909Z,58.40
2022-10-24T14:19:39.254Z,59.42
2022-10-24T14:22:21.082Z,58.67
2022-10-24T14:24:50.065Z,58.84
2022-10-24T14:27:21.511Z,58.14
2022-10-24T14:29:59.913Z,58.58
2022-10-24T14:32:30.786Z,59.57
2022-10-24T14:37:33.234Z,59.63
2022-10-24T14:40:01.918Z,59.51
2022-10-24T14:42:32.473Z,59.78
2022-10-24T14:45:00.828Z,60.23
2022-10-24T14:47:31.328Z,60.85
2022-10-24T14:49:59.942Z,60.76
2022-10-24T14:52:32.416Z,61.50
2022-10-24T14:55:04.489Z,62.01
2022-10-24T14:57:36.512Z,62.40
2022-10-24T15:00:08.578Z,62.81
2022-10-24T15:02:42.147Z,62.70
2022-10-24T15:05:28.282Z,62.98
2022-10-24T15:10:49.049Z,63.18
2022-10-24T15:13:21.836Z,64.09
2022-10-24T15:15:55.261Z,63.18
2022-10-24T15:18:25.273Z,62.49
2022-10-24T15:20:55.528Z,60.61
2022-10-24T15:23:28.164Z,58.08
2022-10-24T15:26:02.713Z,57.60
2022-10-24T15:28:45.774Z,58.75
2022-10-24T15:31:14.779Z,60.53
2022-10-24T15:33:43.447Z,61.51
2022-10-24T15:36:19.123Z,62.34
2022-10-24T15:38:48.665Z,63.96
2022-10-24T15:41:17.253Z,63.88
2022-10-24T15:43:46.968Z,63.75
2022-10-24T15:46:15.053Z,63.80
2022-10-24T15:48:43.283Z,64.17
2022-10-24T15:51:15.345Z,64.47
2022-10-24T15:53:43.582Z,64.36
2022-10-24T15:56:12.886Z,64.73
2022-10-24T15:58:41.409Z,65.10
2022-10-24T16:01:23.981Z,65.07
2022-10-24T16:03:52.195Z,65.13
2022-10-24T16:06:20.945Z,65.67
2022-10-24T16:08:49.435Z,65.44
2022-10-24T16:11:18.067Z,65.85
2022-10-24T16:13:47.317Z,66.36
2022-10-24T16:16:16.783Z,66.47
2022-10-24T16:18:45.261Z,67.33
2022-10-24T16:21:17.974Z,68.27
2022-10-24T16:23:46.313Z,68.53
2022-10-24T16:26:15.203Z,67.79
2022-10-24T16:28:44.119Z,67.07
2022-10-24T16:31:18.740Z,67.61
2022-10-24T16:33:48.299Z,68.10
2022-10-24T16:36:18.479Z,68.30
2022-10-24T16:38:49.237Z,68.50
2022-10-24T16:41:18.470Z,69.39
2022-10-24T16:43:50.011Z,69.74
2022-10-24T16:46:20.139Z,69.57
2022-10-24T16:48:50.467Z,69.73
2022-10-24T16:51:20.953Z,70.22
2022-10-24T16:53:48.980Z,70.13
2022-10-24T16:56:17.398Z,70.05
2022-10-24T16:58:45.621Z,69.81
2022-10-24T17:01:16.470Z,70.05
2022-10-24T17:03:46.145Z,70.49
2022-10-24T17:06:16.099Z,70.87
2022-10-24T17:08:44.350Z,71.18
2022-10-24T17:11:39.361Z,71.20
2022-10-24T17:14:01.467Z,71.65
2022-10-24T17:16:29.559Z,71.58
2022-10-24T17:19:14.778Z,72.10
2022-10-24T17:21:48.035Z,72.54
2022-10-24T17:24:18.285Z,72.62
2022-10-24T17:26:46.578Z,72.80
2022-10-24T17:29:23.870Z,73.14
2022-10-24T17:31:52.054Z,73.51
2022-10-24T17:34:20.560Z,73.63
2022-10-24T17:36:58.107Z,73.67
2022-10-24T17:39:28.934Z,74.36
2022-10-24T17:41:57.335Z,75.06
2022-10-24T17:44:26.105Z,74.94
2022-10-24T17:46:58.234Z,74.46
2022-10-24T17:49:26.979Z,74.90
2022-10-24T17:51:56.706Z,75.39
2022-10-24T17:54:24.800Z,75.47
2022-10-24T17:56:52.946Z,75.14
2022-10-24T17:59:22.038Z,74.98
2022-10-24T18:01:50.604Z,74.91
2022-10-24T18:04:18.844Z,74.03
2022-10-24T18:06:46.925Z,73.41
2022-10-24T18:09:16.460Z,74.20
2022-10-24T18:11:44.818Z,74.57
2022-10-24T18:14:12.881Z,74.97
2022-10-24T18:16:41.383Z,75.32
2022-10-24T18:19:09.729Z,75.61
2022-10-24T18:21:38.023Z,75.66
2022-10-24T18:24:08.767Z,75.66
2022-10-24T18:26:38.277Z,75.80
2022-10-24T18:29:06.554Z,75.93
2022-10-24T18:31:35.255Z,75.86
2022-10-24T18:34:07.548Z,75.87
2022-10-24T18:36:37.163Z,76.08
2022-10-24T18:39:05.667Z,75.81
2022-10-24T18:41:46.723Z,75.34
2022-10-24T18:44:26.437Z,74.90
2022-10-24T18:46:56.443Z,75.25
2022-10-24T18:49:25.397Z,75.13
2022-10-24T18:52:01.495Z,76.59
2022-10-24T18:54:31.306Z,77.96
2022-10-24T18:57:01.073Z,76.95
2022-10-24T18:59:31.020Z,77.96
2022-10-24T19:02:19.368Z,77.58
2022-10-24T19:04:53.797Z,76.73
2022-10-24T19:07:22.410Z,76.46
2022-10-24T19:09:50.579Z,76.39
2022-10-24T19:12:20.345Z,76.91
2022-10-24T19:14:48.878Z,76.95
2022-10-24T19:17:17.158Z,77.37
2022-10-24T19:19:45.342Z,79.00
2022-10-24T19:22:13.721Z,79.87
2022-10-24T19:24:41.788Z,79.80
2022-10-24T19:27:09.958Z,80.54
2022-10-24T19:29:39.717Z,79.65
2022-10-24T19:32:08.041Z,78.90
2022-10-24T19:34:36.205Z,78.49
2022-10-24T19:37:04.566Z,78.28
2022-10-24T19:39:34.002Z,78.33
2022-10-24T19:42:02.292Z,77.78
2022-10-24T19:44:30.463Z,78.03
2022-10-24T19:47:00.127Z,77.79
2022-10-24T19:49:28.232Z,77.84
2022-10-24T19:51:57.118Z,77.94
2022-10-24T19:54:25.202Z,78.69
2022-10-24T19:56:54.610Z,79.12
2022-10-24T19:59:22.903Z,79.66
2022-10-24T20:01:50.948Z,79.41
2022-10-24T20:04:20.989Z,78.93
2022-10-24T20:06:49.386Z,78.05
2022-10-24T20:09:17.864Z,79.78
2022-10-24T20:11:45.917Z,80.34
2022-10-24T20:14:14.055Z,80.26
2022-10-24T20:16:42.310Z,79.33
2022-10-24T20:19:10.306Z,79.56
2022-10-24T20:21:39.790Z,78.80
2022-10-24T20:24:08.881Z,78.53
2022-10-24T20:26:37.109Z,78.26
2022-10-24T20:29:05.732Z,78.36
2022-10-24T20:31:35.921Z,78.69
2022-10-24T20:34:09.894Z,79.14
2022-10-24T20:36:40.234Z,78.84
2022-10-24T20:39:09.378Z,79.40
2022-10-24T20:41:37.818Z,79.76
2022-10-24T20:44:07.309Z,80.75
2022-10-24T20:46:35.881Z,80.41
2022-10-24T20:49:04.777Z,80.76
2022-10-24T20:51:32.923Z,80.52
2022-10-24T20:54:02.800Z,80.40
2022-10-24T20:56:30.968Z,79.95
2022-10-24T20:58:59.054Z,79.75
2022-10-24T21:01:30.124Z,80.10
2022-10-24T21:03:59.489Z,79.93
2022-10-24T21:06:29.527Z,79.52
2022-10-24T21:08:59.500Z,80.36
2022-10-24T21:11:31.233Z,80.84
2022-10-24T21:14:01.956Z,80.95
2022-10-24T21:16:30.603Z,80.94
2022-10-24T21:18:58.945Z,80.55
2022-10-24T21:21:27.456Z,80.63
2022-10-24T21:23:59.644Z,80.93
2022-10-24T21:26:32.246Z,81.72
2022-10-24T21:29:14.574Z,81.76
2022-10-24T21:31:50.033Z,81.52
2022-10-24T21:34:18.270Z,82.17
2022-10-24T21:36:46.966Z,83.15
2022-10-24T21:39:16.776Z,83.45
2022-10-24T21:41:46.526Z,83.54
2022-10-24T21:44:15.424Z,83.74
2022-10-24T21:46:43.564Z,83.17
2022-10-24T21:49:12.317Z,83.19
2022-10-24T21:51:41.544Z,83.16
2022-10-24T21:54:17.239Z,83.04
2022-10-24T21:56:47.099Z,83.57
2022-10-24T21:59:16.991Z,83.57
2022-10-24T22:01:46.757Z,83.71
2022-10-24T22:04:15.647Z,83.50
2022-10-24T22:06:44.704Z,83.82
2022-10-24T22:09:14.962Z,83.73
2022-10-24T22:11:43.485Z,83.72
2022-10-24T22:14:15.022Z,83.29
2022-10-24T22:16:43.929Z,83.21
2022-10-24T22:19:13.739Z,83.31
2022-10-24T22:21:43.889Z,84.16
2022-10-24T22:24:14.794Z,83.66
2022-10-24T22:26:43.915Z,83.75
2022-10-24T22:29:16.556Z,83.55
2022-10-24T22:31:45.887Z,83.66
2022-10-24T22:34:17.966Z,84.32
2022-10-24T22:36:56.169Z,84.73
2022-10-24T22:39:26.501Z,84.35
2022-10-24T22:41:55.595Z,84.20
2022-10-24T22:44:25.989Z,84.68
2022-10-24T22:47:35.933Z,84.95
2022-10-24T22:50:13.984Z,84.67
2022-10-24T22:52:42.860Z,84.69
2022-10-24T22:55:21.043Z,84.32
2022-10-24T22:57:50.079Z,84.75
2022-10-24T23:00:21.317Z,85.00
2022-10-24T23:02:52.369Z,85.04
2022-10-24T23:05:30.149Z,85.28
2022-10-24T23:08:04.897Z,86.17
2022-10-24T23:10:33.503Z,86.35
2022-10-24T23:13:02.272Z,87.15
2022-10-24T23:15:33.362Z,87.09
2022-10-24T23:18:01.837Z,85.42
2022-10-24T23:20:36.382Z,85.57
2022-10-24T23:23:24.620Z,85.61
2022-10-24T23:26:00.801Z,85.57
2022-10-24T23:28:37.436Z,85.76
2022-10-24T23:31:08.798Z,85.63
2022-10-24T23:33:37.428Z,85.66
2022-10-24T23:36:06.154Z,85.81
2022-10-24T23:38:34.964Z,85.84
2022-10-24T23:41:04.199Z,85.57
2022-10-24T23:43:33.202Z,85.37
2022-10-24T23:46:06.449Z,85.52
2022-10-24T23:48:56.981Z,85.88
2022-10-24T23:51:31.244Z,88.35
2022-10-24T23:53:59.968Z,90.04
2022-10-24T23:56:30.738Z,90.56
2022-10-24T23:58:58.813Z,90.79
